createdAt,value
2023-05-12T00:01:29.433Z,11.10
2023-05-12T00:03:57.459Z,11.10
2023-05-12T00:06:26.073Z,11.10
2023-05-12T00:08:53.417Z,11.10
2023-05-12T00:11:21.600Z,11.10
2023-05-12T00:13:49.354Z,11.10
2023-05-12T00:16:18.830Z,11.10
2023-05-12T00:18:46.374Z,11.10
2023-05-12T00:21:13.798Z,11.10
2023-05-12T00:23:41.238Z,11.10
2023-05-12T00:26:08.628Z,11.10
2023-05-12T00:28:35.992Z,11.00
2023-05-12T00:31:04.052Z,11.00
2023-05-12T00:33:31.472Z,11.00
2023-05-12T00:36:01.230Z,11.00
2023-05-12T00:38:28.597Z,11.00
2023-05-12T00:40:56.027Z,11.00
2023-05-12T00:43:23.455Z,11.00
2023-05-12T00:45:51.039Z,11.00
2023-05-12T00:48:18.609Z,11.00
2023-05-12T00:50:45.999Z,11.00
2023-05-12T00:53:13.428Z,10.90
2023-05-12T00:55:41.058Z,11.00
2023-05-12T00:58:08.488Z,11.00
2023-05-12T01:00:37.172Z,11.00
2023-05-12T01:03:04.807Z,11.00
2023-05-12T01:06:01.604Z,11.00
2023-05-12T01:08:29.114Z,11.00
2023-05-12T01:10:57.145Z,11.00
2023-05-12T01:13:24.669Z,11.00
2023-05-12T01:15:51.983Z,11.00
2023-05-12T01:18:20.200Z,11.00
2023-05-12T01:20:48.293Z,10.90
2023-05-12T01:23:19.541Z,10.90
2023-05-12T01:25:47.370Z,10.90
2023-05-12T01:28:15.253Z,10.90
2023-05-12T01:30:42.729Z,10.90
2023-05-12T01:33:12.239Z,10.90
2023-05-12T01:35:40.009Z,10.90
2023-05-12T01:38:07.422Z,10.90
2023-05-12T01:40:38.371Z,10.90
2023-05-12T01:43:06.110Z,10.90
2023-05-12T01:45:33.960Z,10.80
2023-05-12T01:48:01.493Z,10.80
2023-05-12T01:50:28.804Z,10.80
2023-05-12T01:52:56.217Z,10.80
2023-05-12T01:55:23.578Z,10.80
2023-05-12T01:57:56.741Z,10.80
2023-05-12T02:00:24.189Z,10.80
2023-05-12T02:02:54.490Z,10.80
2023-05-12T02:05:22.690Z,10.80
2023-05-12T02:07:50.979Z,10.80
2023-05-12T02:10:18.838Z,10.80
2023-05-12T02:12:46.441Z,10.80
2023-05-12T02:15:14.188Z,10.80
2023-05-12T02:17:45.520Z,10.80
2023-05-12T02:20:14.704Z,10.80
2023-05-12T02:22:43.671Z,10.80
2023-05-12T02:25:11.056Z,10.80
2023-05-12T02:27:38.535Z,10.80
2023-05-12T02:30:07.059Z,10.80
2023-05-12T02:32:34.500Z,10.80
2023-05-12T02:35:02.015Z,10.80
2023-05-12T02:37:29.798Z,10.80
2023-05-12T02:39:57.247Z,10.80
2023-05-12T02:42:28.736Z,10.80
2023-05-12T02:44:56.242Z,10.80
2023-05-12T02:47:23.743Z,10.70
2023-05-12T02:49:51.462Z,10.70
2023-05-12T02:52:18.942Z,10.70
2023-05-12T02:54:46.271Z,10.80
2023-05-12T02:57:13.634Z,10.80
2023-05-12T02:59:41.024Z,10.80
2023-05-12T03:02:08.633Z,10.80
2023-05-12T03:04:36.957Z,10.80
2023-05-12T03:07:06.090Z,10.80
2023-05-12T03:09:34.277Z,10.80
2023-05-12T03:12:01.923Z,10.80
2023-05-12T03:14:29.556Z,10.80
2023-05-12T03:16:57.169Z,10.80
2023-05-12T03:19:24.813Z,10.80
2023-05-12T03:21:52.460Z,10.80
2023-05-12T03:24:19.951Z,10.80
2023-05-12T03:26:48.166Z,10.80
2023-05-12T03:29:15.585Z,10.80
2023-05-12T03:31:43.223Z,10.80
2023-05-12T03:34:11.023Z,10.80
2023-05-12T03:36:38.566Z,10.80
2023-05-12T03:39:08.733Z,10.80
2023-05-12T03:41:37.197Z,10.80
2023-05-12T03:44:05.924Z,10.80
2023-05-12T03:46:33.404Z,10.80
2023-05-12T03:49:01.066Z,10.80
2023-05-12T03:51:28.879Z,10.80
2023-05-12T03:53:56.236Z,10.80
2023-05-12T03:56:23.618Z,10.80
2023-05-12T03:58:51.074Z,10.80
2023-05-12T04:01:18.404Z,10.80
2023-05-12T04:03:46.197Z,10.80
2023-05-12T04:06:13.645Z,10.80
2023-05-12T04:08:42.194Z,10.70
2023-05-12T04:11:09.726Z,10.70
2023-05-12T04:13:37.133Z,10.70
2023-05-12T04:16:05.206Z,10.70
2023-05-12T04:18:32.681Z,10.70
2023-05-12T04:21:00.552Z,10.70
2023-05-12T04:23:28.015Z,10.70
2023-05-12T04:25:55.376Z,10.70
2023-05-12T04:28:22.881Z,10.70
2023-05-12T04:30:50.488Z,10.70
2023-05-12T04:33:18.124Z,10.70
2023-05-12T04:35:45.648Z,10.70
2023-05-12T04:38:14.146Z,10.70
2023-05-12T04:40:41.848Z,10.70
2023-05-12T04:45:58.127Z,10.80
2023-05-12T04:48:29.015Z,10.80
2023-05-12T04:50:59.862Z,10.80
2023-05-12T04:53:27.697Z,10.90
2023-05-12T04:55:56.606Z,10.90
2023-05-12T04:58:24.317Z,10.90
2023-05-12T05:00:53.006Z,10.90
2023-05-12T05:03:20.611Z,11.00
2023-05-12T05:05:49.108Z,11.00
2023-05-12T05:08:17.037Z,11.00
2023-05-12T05:10:44.536Z,11.00
2023-05-12T05:13:11.937Z,11.10
2023-05-12T05:15:39.314Z,11.10
2023-05-12T05:18:07.020Z,11.10
2023-05-12T05:20:34.613Z,11.20
2023-05-12T05:23:02.357Z,11.20
2023-05-12T05:25:29.808Z,11.30
2023-05-12T05:27:57.304Z,11.30
2023-05-12T05:30:25.042Z,11.40
2023-05-12T05:32:52.552Z,11.30
2023-05-12T05:35:20.348Z,11.30
2023-05-12T05:37:50.863Z,11.30
2023-05-12T05:40:18.369Z,11.40
2023-05-12T05:42:46.122Z,11.40
2023-05-12T05:45:13.527Z,11.30
2023-05-12T05:47:42.434Z,11.40
2023-05-12T05:50:10.940Z,11.40
2023-05-12T05:52:40.414Z,11.40
2023-05-12T05:55:08.675Z,11.40
2023-05-12T05:57:36.313Z,11.40
2023-05-12T06:00:05.150Z,11.40
2023-05-12T06:02:41.685Z,11.40
2023-05-12T06:05:14.226Z,11.50
2023-05-12T06:07:44.735Z,11.50
2023-05-12T06:10:12.126Z,11.50
2023-05-12T06:12:41.194Z,11.40
2023-05-12T06:15:09.094Z,11.50
2023-05-12T06:17:36.496Z,11.50
2023-05-12T06:20:05.313Z,11.50
2023-05-12T06:22:34.702Z,11.60
2023-05-12T06:25:02.306Z,11.60
2023-05-12T06:27:29.665Z,11.60
2023-05-12T06:29:57.034Z,11.60
2023-05-12T06:32:24.411Z,11.60
2023-05-12T06:34:51.863Z,11.60
2023-05-12T06:37:19.197Z,11.70
2023-05-12T06:39:46.521Z,11.70
2023-05-12T06:42:13.864Z,11.70
2023-05-12T06:44:42.669Z,11.70
2023-05-12T06:47:10.097Z,11.70
2023-05-12T06:49:38.716Z,11.80
2023-05-12T06:52:06.773Z,11.70
2023-05-12T06:54:34.813Z,11.80
2023-05-12T06:57:02.181Z,11.80
2023-05-12T06:59:29.806Z,11.80
2023-05-12T07:01:57.291Z,11.80
2023-05-12T07:04:26.836Z,11.90
2023-05-12T07:06:54.208Z,11.90
2023-05-12T07:09:21.655Z,11.90
2023-05-12T07:11:49.272Z,12.00
2023-05-12T07:14:17.692Z,11.90
2023-05-12T07:16:45.100Z,11.90
2023-05-12T07:19:12.704Z,11.90
2023-05-12T07:21:40.083Z,11.90
2023-05-12T07:24:07.587Z,11.90
2023-05-12T07:26:35.045Z,11.90
2023-05-12T07:29:04.026Z,11.90
2023-05-12T07:31:31.423Z,12.00
2023-05-12T07:33:58.839Z,12.00
2023-05-12T07:36:26.177Z,12.00
2023-05-12T07:38:53.599Z,12.00
2023-05-12T07:41:21.222Z,12.10
2023-05-12T07:43:48.563Z,12.10
2023-05-12T07:46:15.971Z,12.10
2023-05-12T07:48:43.385Z,12.10
2023-05-12T07:51:10.686Z,12.10
2023-05-12T07:53:38.073Z,12.20
2023-05-12T07:56:08.180Z,12.20
2023-05-12T07:58:35.620Z,12.20
2023-05-12T08:01:06.073Z,12.10
2023-05-12T08:03:34.986Z,12.20
2023-05-12T08:06:03.592Z,12.20
2023-05-12T08:08:31.582Z,12.20
2023-05-12T08:10:58.899Z,12.20
2023-05-12T08:13:28.891Z,12.20
2023-05-12T08:15:56.230Z,12.20
2023-05-12T08:18:23.648Z,12.20
2023-05-12T08:20:51.058Z,12.30
2023-05-12T08:23:18.485Z,12.30
2023-05-12T08:25:46.409Z,12.30
2023-05-12T08:28:13.960Z,12.30
2023-05-12T08:30:45.259Z,12.30
2023-05-12T08:33:12.894Z,12.40
2023-05-12T08:35:40.276Z,12.40
2023-05-12T08:38:07.564Z,12.40
2023-05-12T08:40:38.197Z,12.40
2023-05-12T08:43:15.843Z,12.40
2023-05-12T08:45:43.214Z,12.40
2023-05-12T08:48:11.287Z,12.50
2023-05-12T08:50:38.881Z,12.50
2023-05-12T08:53:07.668Z,12.60
2023-05-12T08:55:35.436Z,12.70
2023-05-12T08:58:03.265Z,12.80
2023-05-12T09:00:31.243Z,12.80
2023-05-12T09:02:59.664Z,13.00
2023-05-12T09:05:27.357Z,13.00
2023-05-12T09:07:55.841Z,13.10
2023-05-12T09:10:34.271Z,13.20
2023-05-12T09:13:13.568Z,13.30
2023-05-12T09:15:46.030Z,13.40
2023-05-12T09:18:13.391Z,13.50
2023-05-12T09:20:40.748Z,13.60
2023-05-12T09:23:22.013Z,13.60
2023-05-12T09:26:00.822Z,13.60
2023-05-12T09:28:36.573Z,13.60
2023-05-12T09:31:15.022Z,13.70
2023-05-12T09:33:42.456Z,13.70
2023-05-12T09:36:09.822Z,13.70
2023-05-12T09:38:37.271Z,13.60
2023-05-12T09:41:04.702Z,13.70
2023-05-12T09:43:32.116Z,13.70
2023-05-12T09:46:05.945Z,13.70
2023-05-12T09:48:33.787Z,13.70
2023-05-12T09:51:01.188Z,13.70
2023-05-12T09:53:28.890Z,13.80
2023-05-12T09:55:56.281Z,13.80
2023-05-12T09:58:23.756Z,13.80
2023-05-12T10:01:13.494Z,13.70
2023-05-12T10:03:38.539Z,13.70
2023-05-12T10:06:07.788Z,13.70
2023-05-12T10:08:47.311Z,13.70
2023-05-12T10:11:14.713Z,13.70
2023-05-12T10:13:42.105Z,13.60
2023-05-12T10:16:09.721Z,13.60
2023-05-12T10:18:37.353Z,13.60
2023-05-12T10:21:04.901Z,13.50
2023-05-12T10:23:32.312Z,13.50
2023-05-12T10:26:02.213Z,13.60
2023-05-12T10:28:29.610Z,13.60
2023-05-12T10:31:00.432Z,13.60
2023-05-12T10:33:27.892Z,13.70
2023-05-12T10:35:55.300Z,13.70
2023-05-12T10:38:22.757Z,13.80
2023-05-12T10:41:01.314Z,13.80
2023-05-12T10:43:30.076Z,13.80
2023-05-12T10:46:12.770Z,13.80
2023-05-12T10:49:10.256Z,13.80
2023-05-12T10:51:37.750Z,13.80
2023-05-12T10:54:09.721Z,13.80
2023-05-12T10:56:37.368Z,13.80
2023-05-12T10:59:19.566Z,13.80
2023-05-12T11:02:04.012Z,13.80
2023-05-12T11:04:51.696Z,13.80
2023-05-12T11:07:26.574Z,13.80
2023-05-12T11:09:59.532Z,13.80
2023-05-12T11:12:32.698Z,13.80
2023-05-12T11:15:01.469Z,13.80
2023-05-12T11:17:31.309Z,13.80
2023-05-12T11:19:58.822Z,13.80
2023-05-12T11:22:26.743Z,13.90
2023-05-12T11:24:54.321Z,14.00
2023-05-12T11:27:22.826Z,13.90
2023-05-12T11:30:01.261Z,13.90
2023-05-12T11:32:29.612Z,13.90
2023-05-12T11:35:10.035Z,13.90
2023-05-12T11:37:41.558Z,13.90
2023-05-12T11:40:16.828Z,13.90
2023-05-12T11:42:48.399Z,13.90
2023-05-12T11:45:23.349Z,13.80
2023-05-12T11:47:51.365Z,13.80
2023-05-12T11:50:23.286Z,13.80
2023-05-12T11:52:51.382Z,13.80
2023-05-12T11:55:26.016Z,13.80
2023-05-12T11:58:02.762Z,13.80
2023-05-12T12:00:32.764Z,13.70
2023-05-12T12:03:07.373Z,13.70
2023-05-12T12:05:34.809Z,13.70
2023-05-12T12:08:10.040Z,13.70
2023-05-12T12:10:38.157Z,13.70
2023-05-12T12:13:06.012Z,13.70
2023-05-12T12:15:33.558Z,13.70
2023-05-12T12:18:00.985Z,13.70
2023-05-12T12:20:29.588Z,13.60
2023-05-12T12:22:56.993Z,13.60
2023-05-12T12:25:24.422Z,13.70
2023-05-12T12:27:52.948Z,13.70
2023-05-12T12:30:20.395Z,13.70
2023-05-12T12:32:47.774Z,13.70
2023-05-12T12:35:15.638Z,13.70
2023-05-12T12:37:43.072Z,13.70
2023-05-12T12:40:11.525Z,13.70
2023-05-12T12:42:40.632Z,13.70
2023-05-12T12:45:11.070Z,13.70
2023-05-12T12:47:39.023Z,13.70
2023-05-12T12:50:10.631Z,13.70
2023-05-12T12:52:38.643Z,13.80
2023-05-12T12:55:07.071Z,13.70
2023-05-12T12:57:34.898Z,13.80
2023-05-12T13:00:04.595Z,13.80
2023-05-12T13:02:32.095Z,13.80
2023-05-12T13:05:03.727Z,13.80
2023-05-12T13:07:31.191Z,13.80
2023-05-12T13:09:58.578Z,13.80
2023-05-12T13:12:26.207Z,13.80
2023-05-12T13:14:53.765Z,13.80
2023-05-12T13:17:21.097Z,13.90
2023-05-12T13:19:48.499Z,13.90
2023-05-12T13:22:15.889Z,14.00
2023-05-12T13:24:43.206Z,14.00
2023-05-12T13:27:10.709Z,14.00
2023-05-12T13:29:38.303Z,14.10
2023-05-12T13:32:05.974Z,14.10
2023-05-12T13:34:33.546Z,14.30
2023-05-12T13:37:02.350Z,14.30
2023-05-12T13:39:30.271Z,14.40
2023-05-12T13:41:58.212Z,14.40
2023-05-12T13:44:25.635Z,14.40
2023-05-12T13:46:53.300Z,14.40
2023-05-12T13:49:20.707Z,14.50
2023-05-12T13:51:48.105Z,14.50
2023-05-12T13:54:15.973Z,14.50
2023-05-12T13:56:43.344Z,14.50
2023-05-12T13:59:10.727Z,14.40
2023-05-12T14:01:39.301Z,14.40
2023-05-12T14:04:06.692Z,14.40
2023-05-12T14:06:34.166Z,14.30
2023-05-12T14:09:01.624Z,14.30
2023-05-12T14:11:28.949Z,14.30
2023-05-12T14:13:56.319Z,14.20
2023-05-12T14:16:23.777Z,14.20
2023-05-12T14:18:52.736Z,14.10
2023-05-12T14:21:25.713Z,14.10
2023-05-12T14:23:53.721Z,14.10
2023-05-12T14:26:22.566Z,14.10
2023-05-12T14:28:50.075Z,14.00
2023-05-12T14:31:17.958Z,14.00
2023-05-12T14:33:45.404Z,14.00
2023-05-12T14:36:12.755Z,14.00
2023-05-12T14:38:40.193Z,14.00
2023-05-12T14:41:08.462Z,13.90
2023-05-12T14:43:35.958Z,13.90
2023-05-12T14:46:04.382Z,13.90
2023-05-12T14:48:31.852Z,14.00
2023-05-12T14:50:59.334Z,14.00
2023-05-12T14:53:26.679Z,14.00
2023-05-12T14:55:54.162Z,14.00
2023-05-12T14:58:21.946Z,14.00
2023-05-12T15:00:50.789Z,13.90
2023-05-12T15:03:18.589Z,13.90
2023-05-12T15:06:04.754Z,13.90
2023-05-12T15:08:33.754Z,13.90
2023-05-12T15:11:01.032Z,13.90
2023-05-12T15:13:28.392Z,13.90
2023-05-12T15:15:56.723Z,13.90
2023-05-12T15:18:24.596Z,13.80
2023-05-12T15:20:52.115Z,13.80
2023-05-12T15:23:19.489Z,13.80
2023-05-12T15:25:46.822Z,13.70
2023-05-12T15:28:14.270Z,13.70
2023-05-12T15:30:41.692Z,13.70
2023-05-12T15:33:09.158Z,13.70
2023-05-12T15:35:36.624Z,13.70
2023-05-12T15:38:04.053Z,13.70
2023-05-12T15:40:31.389Z,13.70
2023-05-12T15:42:58.895Z,13.70
2023-05-12T15:45:26.255Z,13.60
2023-05-12T15:47:53.697Z,13.70
2023-05-12T15:50:22.933Z,13.60
2023-05-12T15:52:50.774Z,13.60
2023-05-12T15:55:18.439Z,13.60
2023-05-12T15:57:45.885Z,13.60
2023-05-12T16:00:13.795Z,13.60
2023-05-12T16:02:41.143Z,13.60
2023-05-12T16:05:09.633Z,13.60
2023-05-12T16:07:37.038Z,13.60
2023-05-12T16:10:05.236Z,13.60
2023-05-12T16:12:32.596Z,13.60
2023-05-12T16:15:00.144Z,13.60
2023-05-12T16:17:27.811Z,13.60
2023-05-12T16:19:56.909Z,13.50
2023-05-12T16:22:24.374Z,13.60
2023-05-12T16:24:53.735Z,13.60
2023-05-12T16:27:21.122Z,13.60
2023-05-12T16:29:49.599Z,13.60
2023-05-12T16:32:17.540Z,13.60
2023-05-12T16:34:45.081Z,13.60
2023-05-12T16:37:12.508Z,13.60
2023-05-12T16:39:39.894Z,13.60
2023-05-12T16:42:07.516Z,13.60
2023-05-12T16:44:34.789Z,13.60
2023-05-12T16:47:02.142Z,13.60
2023-05-12T16:49:29.440Z,13.50
2023-05-12T16:51:56.738Z,13.50
2023-05-12T16:54:24.178Z,13.50
2023-05-12T16:56:51.519Z,13.40
2023-05-12T16:59:18.816Z,13.50
2023-05-12T17:01:46.148Z,13.40
2023-05-12T17:04:15.364Z,13.40
2023-05-12T17:06:43.279Z,13.30
2023-05-12T17:09:10.562Z,13.30
2023-05-12T17:11:38.052Z,13.30
2023-05-12T17:14:05.385Z,13.30
2023-05-12T17:16:32.717Z,13.30
2023-05-12T17:21:30.210Z,13.20
2023-05-12T17:23:57.724Z,13.20
2023-05-12T17:26:27.688Z,13.20
2023-05-12T17:28:55.480Z,13.20
2023-05-12T17:31:22.944Z,13.20
2023-05-12T17:33:50.387Z,13.10
2023-05-12T17:36:18.657Z,13.10
2023-05-12T17:38:46.250Z,13.10
2023-05-12T17:41:13.655Z,13.10
2023-05-12T17:43:41.453Z,13.10
2023-05-12T17:46:09.226Z,13.10
2023-05-12T17:48:38.278Z,13.00
2023-05-12T17:51:05.753Z,13.00
2023-05-12T17:53:33.893Z,13.00
2023-05-12T17:56:01.579Z,13.00
2023-05-12T17:58:28.991Z,13.00
2023-05-12T18:00:56.712Z,13.00
2023-05-12T18:03:24.245Z,12.90
2023-05-12T18:05:52.659Z,12.90
2023-05-12T18:08:20.033Z,12.90
2023-05-12T18:10:47.425Z,12.90
2023-05-12T18:13:15.486Z,12.90
2023-05-12T18:15:42.995Z,12.90
2023-05-12T18:18:10.727Z,12.90
2023-05-12T18:20:38.260Z,12.90
2023-05-12T18:23:05.686Z,12.90
2023-05-12T18:25:33.122Z,12.90
2023-05-12T18:28:00.453Z,12.90
2023-05-12T18:30:27.792Z,12.80
2023-05-12T18:32:55.248Z,12.80
2023-05-12T18:35:23.032Z,12.80
2023-05-12T18:37:50.583Z,12.80
2023-05-12T18:40:17.948Z,12.80
2023-05-12T18:42:45.294Z,12.80
2023-05-12T18:45:12.692Z,12.70
2023-05-12T18:47:40.117Z,12.70
2023-05-12T18:50:08.008Z,12.70
2023-05-12T18:52:35.872Z,12.70
2023-05-12T18:55:03.271Z,12.70
2023-05-12T18:57:30.616Z,12.70
2023-05-12T18:59:57.970Z,12.70
2023-05-12T19:02:25.368Z,12.70
2023-05-12T19:04:53.385Z,12.70
2023-05-12T19:07:20.736Z,12.70
2023-05-12T19:09:48.160Z,12.60
2023-05-12T19:12:15.492Z,12.60
2023-05-12T19:14:43.228Z,12.60
2023-05-12T19:17:10.860Z,12.60
2023-05-12T19:19:38.368Z,12.60
2023-05-12T19:22:05.802Z,12.60
2023-05-12T19:24:33.172Z,12.60
2023-05-12T19:27:01.317Z,12.50
2023-05-12T19:29:28.676Z,12.50
2023-05-12T19:31:56.217Z,12.60
2023-05-12T19:34:23.927Z,12.50
2023-05-12T19:36:52.375Z,12.50
2023-05-12T19:39:19.662Z,12.50
2023-05-12T19:41:47.106Z,12.50
2023-05-12T19:44:14.380Z,12.50
2023-05-12T19:46:41.703Z,12.50
2023-05-12T19:49:09.213Z,12.50
2023-05-12T19:51:36.681Z,12.50
2023-05-12T19:54:06.344Z,12.50
2023-05-12T19:56:33.819Z,12.50
2023-05-12T19:59:01.178Z,12.40
2023-05-12T20:01:28.616Z,12.50
2023-05-12T20:03:56.582Z,12.40
2023-05-12T20:06:24.984Z,12.40
2023-05-12T20:08:52.569Z,12.40
2023-05-12T20:11:19.949Z,12.40
2023-05-12T20:13:47.275Z,12.40
2023-05-12T20:16:14.710Z,12.40
2023-05-12T20:18:42.126Z,12.30
2023-05-12T20:21:09.522Z,12.30
2023-05-12T20:23:36.920Z,12.30
2023-05-12T20:26:04.845Z,12.30
2023-05-12T20:28:32.177Z,12.20
2023-05-12T20:30:59.539Z,12.20
2023-05-12T20:33:26.940Z,12.20
2023-05-12T20:35:54.282Z,12.20
2023-05-12T20:38:21.672Z,12.20
2023-05-12T20:40:48.988Z,12.20
2023-05-12T20:43:16.359Z,12.20
2023-05-12T20:45:43.688Z,12.20
2023-05-12T20:48:11.129Z,12.20
2023-05-12T20:50:38.493Z,12.10
2023-05-12T20:53:05.978Z,12.20
2023-05-12T20:55:33.537Z,12.20
2023-05-12T20:58:00.907Z,12.20
2023-05-12T21:00:28.285Z,12.20
2023-05-12T21:02:56.127Z,12.10
2023-05-12T21:05:23.668Z,12.10
2023-05-12T21:07:51.433Z,12.10
2023-05-12T21:10:19.074Z,12.10
2023-05-12T21:12:46.807Z,12.00
2023-05-12T21:15:14.126Z,12.10
2023-05-12T21:17:41.673Z,12.10
2023-05-12T21:20:10.332Z,12.10
2023-05-12T21:22:38.016Z,12.00
2023-05-12T21:25:05.913Z,12.10
2023-05-12T21:27:33.189Z,12.00
2023-05-12T21:30:00.540Z,12.00
2023-05-12T21:32:27.968Z,12.00
2023-05-12T21:34:55.301Z,12.00
2023-05-12T21:37:22.595Z,12.00
2023-05-12T21:39:49.938Z,12.00
2023-05-12T21:42:17.230Z,12.00
2023-05-12T21:44:44.542Z,12.00
2023-05-12T21:47:11.830Z,12.00
2023-05-12T21:49:39.487Z,11.90
2023-05-12T21:52:06.826Z,11.90
2023-05-12T21:54:34.227Z,11.90
2023-05-12T21:57:01.658Z,11.90
2023-05-12T21:59:29.307Z,11.90
2023-05-12T22:01:56.816Z,11.90
2023-05-12T22:04:24.221Z,11.90
2023-05-12T22:06:51.812Z,11.90
2023-05-12T22:09:20.368Z,11.80
2023-05-12T22:11:47.777Z,11.80
2023-05-12T22:14:15.135Z,11.80
2023-05-12T22:16:42.925Z,11.80
2023-05-12T22:19:10.522Z,11.80
2023-05-12T22:21:37.962Z,11.80
2023-05-12T22:24:05.641Z,11.80
2023-05-12T22:26:32.995Z,11.80
2023-05-12T22:29:01.227Z,11.80
2023-05-12T22:31:28.664Z,11.80
2023-05-12T22:33:56.003Z,11.80
2023-05-12T22:36:23.518Z,11.70
2023-05-12T22:38:50.805Z,11.70
2023-05-12T22:41:18.150Z,11.70
2023-05-12T22:43:45.545Z,11.70
2023-05-12T22:46:12.851Z,11.70
2023-05-12T22:48:40.298Z,11.70
2023-05-12T22:51:07.620Z,11.70
2023-05-12T22:53:41.342Z,11.70
2023-05-12T22:56:08.689Z,11.70
2023-05-12T22:58:35.977Z,11.70
2023-05-12T23:01:03.463Z,11.70
2023-05-12T23:03:32.528Z,11.70
2023-05-12T23:05:59.856Z,11.70
2023-05-12T23:08:27.146Z,11.70
2023-05-12T23:10:54.451Z,11.70
2023-05-12T23:13:21.847Z,11.70
2023-05-12T23:15:49.347Z,11.70
2023-05-12T23:18:16.673Z,11.70
2023-05-12T23:20:44.027Z,11.70
2023-05-12T23:23:11.598Z,11.70
2023-05-12T23:25:38.971Z,11.70
2023-05-12T23:28:06.535Z,11.70
2023-05-12T23:30:33.956Z,11.60
2023-05-12T23:33:01.412Z,11.60
2023-05-12T23:35:28.916Z,11.60
2023-05-12T23:37:56.266Z,11.60
2023-05-12T23:40:23.805Z,11.60
2023-05-12T23:42:51.332Z,11.60
2023-05-12T23:45:18.664Z,11.60
2023-05-12T23:47:46.083Z,11.60
2023-05-12T23:50:13.487Z,11.60
2023-05-12T23:52:40.895Z,11.60
2023-05-12T23:55:08.631Z,11.50
2023-05-12T23:57:35.972Z,11.50
